sensor_id;sensor_type;location;lat;lon;timestamp;P1;durP1;ratioP1;P2;durP2;ratioP2
75156;SDS011;63736;50.076;8.198;2024-03-25T00:00:47;19.20;;;12.07;;
75156;SDS011;63736;50.076;8.198;2024-03-25T00:02:17;15.83;;;8.37;;
75156;SDS011;63736;50.076;8.198;2024-03-25T00:03:47;15.53;;;10.53;;
75156;SDS011;63736;50.076;8.198;2024-03-25T00:05:18;17.20;;;9.90;;
75156;SDS011;63736;50.076;8.198;2024-03-25T00:06:52;16.70;;;11.57;;
75156;SDS011;63736;50.076;8.198;2024-03-25T00:08:23;19.00;;;11.93;;
75156;SDS011;63736;50.076;8.198;2024-03-25T00:09:53;19.37;;;13.43;;
75156;SDS011;63736;50.076;8.198;2024-03-25T00:11:25;19.75;;;12.85;;
75156;SDS011;63736;50.076;8.198;2024-03-25T00:12:55;18.40;;;11.87;;
75156;SDS011;63736;50.076;8.198;2024-03-25T00:14:26;13.65;;;8.25;;
75156;SDS011;63736;50.076;8.198;2024-03-25T00:15:57;15.27;;;9.90;;
75156;SDS011;63736;50.076;8.198;2024-03-25T00:17:27;13.40;;;8.63;;
75156;SDS011;63736;50.076;8.198;2024-03-25T00:18:57;11.83;;;6.00;;
75156;SDS011;63736;50.076;8.198;2024-03-25T00:20:27;14.67;;;10.73;;
75156;SDS011;63736;50.076;8.198;2024-03-25T00:21:58;16.60;;;9.57;;
75156;SDS011;63736;50.076;8.198;2024-03-25T00:23:28;15.00;;;8.53;;
75156;SDS011;63736;50.076;8.198;2024-03-25T00:24:59;11.20;;;7.25;;
75156;SDS011;63736;50.076;8.198;2024-03-25T00:26:30;11.40;;;6.77;;
75156;SDS011;63736;50.076;8.198;2024-03-25T00:28:00;8.83;;;5.30;;
75156;SDS011;63736;50.076;8.198;2024-03-25T00:29:30;11.83;;;6.87;;
75156;SDS011;63736;50.076;8.198;2024-03-25T00:31:00;10.50;;;4.70;;
75156;SDS011;63736;50.076;8.198;2024-03-25T00:32:31;9.80;;;5.13;;
75156;SDS011;63736;50.076;8.198;2024-03-25T00:34:01;7.00;;;3.93;;
75156;SDS011;63736;50.076;8.198;2024-03-25T00:35:32;9.80;;;3.90;;
75156;SDS011;63736;50.076;8.198;2024-03-25T00:37:03;6.13;;;2.70;;
75156;SDS011;63736;50.076;8.198;2024-03-25T00:38:34;8.43;;;3.83;;
75156;SDS011;63736;50.076;8.198;2024-03-25T00:40:04;7.33;;;3.30;;
75156;SDS011;63736;50.076;8.198;2024-03-25T00:41:37;8.98;;;3.15;;
75156;SDS011;63736;50.076;8.198;2024-03-25T00:43:07;8.50;;;2.90;;
75156;SDS011;63736;50.076;8.198;2024-03-25T00:44:37;11.47;;;3.07;;
75156;SDS011;63736;50.076;8.198;2024-03-25T00:46:08;10.70;;;3.43;;
75156;SDS011;63736;50.076;8.198;2024-03-25T00:47:38;6.30;;;2.60;;
75156;SDS011;63736;50.076;8.198;2024-03-25T00:49:09;10.52;;;2.33;;
75156;SDS011;63736;50.076;8.198;2024-03-25T00:50:40;8.10;;;1.60;;
75156;SDS011;63736;50.076;8.198;2024-03-25T00:52:10;7.70;;;1.63;;
75156;SDS011;63736;50.076;8.198;2024-03-25T00:53:40;6.93;;;1.80;;
75156;SDS011;63736;50.076;8.198;2024-03-25T00:55:10;7.07;;;2.13;;
75156;SDS011;63736;50.076;8.198;2024-03-25T00:56:41;7.67;;;1.73;;
75156;SDS011;63736;50.076;8.198;2024-03-25T00:58:11;6.17;;;1.50;;
75156;SDS011;63736;50.076;8.198;2024-03-25T00:59:41;6.17;;;1.50;;
75156;SDS011;63736;50.076;8.198;2024-03-25T01:01:12;6.37;;;1.40;;
75156;SDS011;63736;50.076;8.198;2024-03-25T01:02:42;10.20;;;2.00;;
75156;SDS011;63736;50.076;8.198;2024-03-25T01:04:12;7.87;;;1.97;;
75156;SDS011;63736;50.076;8.198;2024-03-25T01:05:43;7.23;;;1.83;;
75156;SDS011;63736;50.076;8.198;2024-03-25T01:07:13;12.20;;;2.15;;
75156;SDS011;63736;50.076;8.198;2024-03-25T01:08:44;6.27;;;1.83;;
75156;SDS011;63736;50.076;8.198;2024-03-25T01:10:14;7.37;;;1.57;;
75156;SDS011;63736;50.076;8.198;2024-03-25T01:11:46;5.45;;;1.73;;
75156;SDS011;63736;50.076;8.198;2024-03-25T01:13:16;9.70;;;2.37;;
75156;SDS011;63736;50.076;8.198;2024-03-25T01:14:46;5.27;;;1.47;;
75156;SDS011;63736;50.076;8.198;2024-03-25T01:16:19;10.30;;;1.70;;
75156;SDS011;63736;50.076;8.198;2024-03-25T01:17:50;6.57;;;1.63;;
75156;SDS011;63736;50.076;8.198;2024-03-25T01:19:20;7.70;;;1.73;;
75156;SDS011;63736;50.076;8.198;2024-03-25T01:20:51;8.15;;;2.05;;
75156;SDS011;63736;50.076;8.198;2024-03-25T01:22:21;6.47;;;1.27;;
75156;SDS011;63736;50.076;8.198;2024-03-25T01:23:52;7.47;;;1.60;;
75156;SDS011;63736;50.076;8.198;2024-03-25T01:25:22;5.40;;;1.43;;
75156;SDS011;63736;50.076;8.198;2024-03-25T01:26:52;6.00;;;1.73;;
75156;SDS011;63736;50.076;8.198;2024-03-25T01:28:22;5.33;;;1.73;;
75156;SDS011;63736;50.076;8.198;2024-03-25T01:29:53;8.10;;;1.63;;
75156;SDS011;63736;50.076;8.198;2024-03-25T01:31:23;4.68;;;1.38;;
75156;SDS011;63736;50.076;8.198;2024-03-25T01:32:53;7.90;;;1.57;;
75156;SDS011;63736;50.076;8.198;2024-03-25T01:34:24;9.10;;;1.57;;
75156;SDS011;63736;50.076;8.198;2024-03-25T01:35:54;5.40;;;1.73;;
75156;SDS011;63736;50.076;8.198;2024-03-25T01:37:25;6.20;;;1.80;;
75156;SDS011;63736;50.076;8.198;2024-03-25T01:38:55;6.03;;;1.50;;
75156;SDS011;63736;50.076;8.198;2024-03-25T01:40:26;5.70;;;1.53;;
75156;SDS011;63736;50.076;8.198;2024-03-25T01:41:56;4.80;;;1.40;;
75156;SDS011;63736;50.076;8.198;2024-03-25T01:43:26;7.80;;;1.57;;
75156;SDS011;63736;50.076;8.198;2024-03-25T01:44:56;5.50;;;1.73;;
75156;SDS011;63736;50.076;8.198;2024-03-25T01:46:27;6.03;;;1.60;;
75156;SDS011;63736;50.076;8.198;2024-03-25T01:47:57;7.97;;;1.60;;
75156;SDS011;63736;50.076;8.198;2024-03-25T01:49:31;7.18;;;1.60;;
75156;SDS011;63736;50.076;8.198;2024-03-25T01:51:01;6.50;;;1.60;;
75156;SDS011;63736;50.076;8.198;2024-03-25T01:52:32;6.18;;;1.60;;
75156;SDS011;63736;50.076;8.198;2024-03-25T01:54:03;7.35;;;2.00;;
75156;SDS011;63736;50.076;8.198;2024-03-25T01:55:35;5.38;;;1.35;;
75156;SDS011;63736;50.076;8.198;2024-03-25T01:57:06;4.97;;;1.50;;
75156;SDS011;63736;50.076;8.198;2024-03-25T01:58:36;6.07;;;1.90;;
75156;SDS011;63736;50.076;8.198;2024-03-25T02:00:07;7.07;;;1.80;;
75156;SDS011;63736;50.076;8.198;2024-03-25T02:01:39;7.63;;;1.60;;
75156;SDS011;63736;50.076;8.198;2024-03-25T02:03:09;7.87;;;1.63;;
75156;SDS011;63736;50.076;8.198;2024-03-25T02:04:40;5.32;;;1.63;;
75156;SDS011;63736;50.076;8.198;2024-03-25T02:06:13;8.10;;;1.70;;
75156;SDS011;63736;50.076;8.198;2024-03-25T02:07:45;5.83;;;1.30;;
75156;SDS011;63736;50.076;8.198;2024-03-25T02:09:16;5.80;;;1.70;;
75156;SDS011;63736;50.076;8.198;2024-03-25T02:10:47;4.75;;;1.40;;
75156;SDS011;63736;50.076;8.198;2024-03-25T02:12:17;7.20;;;1.77;;
75156;SDS011;63736;50.076;8.198;2024-03-25T02:13:48;4.22;;;1.20;;
75156;SDS011;63736;50.076;8.198;2024-03-25T02:15:19;7.57;;;1.43;;
75156;SDS011;63736;50.076;8.198;2024-03-25T02:16:49;6.25;;;1.55;;
75156;SDS011;63736;50.076;8.198;2024-03-25T02:18:20;8.03;;;1.63;;
75156;SDS011;63736;50.076;8.198;2024-03-25T02:19:51;6.47;;;1.58;;
75156;SDS011;63736;50.076;8.198;2024-03-25T02:21:21;6.10;;;1.53;;
75156;SDS011;63736;50.076;8.198;2024-03-25T02:22:52;8.67;;;1.63;;
75156;SDS011;63736;50.076;8.198;2024-03-25T02:24:22;5.33;;;1.50;;
75156;SDS011;63736;50.076;8.198;2024-03-25T02:25:56;6.07;;;1.67;;
75156;SDS011;63736;50.076;8.198;2024-03-25T02:27:26;8.20;;;1.90;;
75156;SDS011;63736;50.076;8.198;2024-03-25T02:29:02;6.00;;;1.30;;
75156;SDS011;63736;50.076;8.198;2024-03-25T02:30:32;7.17;;;1.40;;
75156;SDS011;63736;50.076;8.198;2024-03-25T02:32:02;7.77;;;1.50;;
75156;SDS011;63736;50.076;8.198;2024-03-25T02:33:33;5.25;;;1.67;;
75156;SDS011;63736;50.076;8.198;2024-03-25T02:35:05;6.33;;;1.20;;
75156;SDS011;63736;50.076;8.198;2024-03-25T02:36:37;5.03;;;1.40;;
75156;SDS011;63736;50.076;8.198;2024-03-25T02:38:08;5.20;;;1.20;;
75156;SDS011;63736;50.076;8.198;2024-03-25T02:39:39;6.38;;;1.40;;
75156;SDS011;63736;50.076;8.198;2024-03-25T02:41:10;7.50;;;1.40;;
75156;SDS011;63736;50.076;8.198;2024-03-25T02:42:40;6.87;;;2.60;;
75156;SDS011;63736;50.076;8.198;2024-03-25T02:44:10;22.40;;;9.53;;
75156;SDS011;63736;50.076;8.198;2024-03-25T02:45:41;38.67;;;17.30;;
75156;SDS011;63736;50.076;8.198;2024-03-25T02:47:11;38.55;;;16.23;;
75156;SDS011;63736;50.076;8.198;2024-03-25T02:48:41;43.10;;;18.27;;
75156;SDS011;63736;50.076;8.198;2024-03-25T02:50:12;70.90;;;30.07;;
75156;SDS011;63736;50.076;8.198;2024-03-25T02:51:42;55.03;;;25.87;;
75156;SDS011;63736;50.076;8.198;2024-03-25T02:53:13;54.30;;;24.40;;
75156;SDS011;63736;50.076;8.198;2024-03-25T02:54:43;50.00;;;21.83;;
75156;SDS011;63736;50.076;8.198;2024-03-25T02:56:13;30.97;;;13.60;;
75156;SDS011;63736;50.076;8.198;2024-03-25T02:57:43;27.17;;;11.17;;
75156;SDS011;63736;50.076;8.198;2024-03-25T02:59:13;18.67;;;8.27;;
75156;SDS011;63736;50.076;8.198;2024-03-25T03:00:44;17.10;;;8.00;;
75156;SDS011;63736;50.076;8.198;2024-03-25T03:02:14;24.25;;;10.50;;
75156;SDS011;63736;50.076;8.198;2024-03-25T03:03:45;20.33;;;8.57;;
75156;SDS011;63736;50.076;8.198;2024-03-25T03:05:15;17.53;;;9.77;;
75156;SDS011;63736;50.076;8.198;2024-03-25T03:06:45;13.17;;;6.03;;
75156;SDS011;63736;50.076;8.198;2024-03-25T03:08:16;8.53;;;2.90;;
75156;SDS011;63736;50.076;8.198;2024-03-25T03:09:46;11.80;;;5.80;;
75156;SDS011;63736;50.076;8.198;2024-03-25T03:11:16;13.00;;;7.80;;
75156;SDS011;63736;50.076;8.198;2024-03-25T03:12:47;11.23;;;6.93;;
75156;SDS011;63736;50.076;8.198;2024-03-25T03:14:17;9.70;;;5.33;;
75156;SDS011;63736;50.076;8.198;2024-03-25T03:15:47;14.97;;;6.80;;
75156;SDS011;63736;50.076;8.198;2024-03-25T03:17:17;13.17;;;9.70;;
75156;SDS011;63736;50.076;8.198;2024-03-25T03:18:48;23.23;;;15.00;;
75156;SDS011;63736;50.076;8.198;2024-03-25T03:20:18;15.97;;;11.57;;
75156;SDS011;63736;50.076;8.198;2024-03-25T03:21:48;14.07;;;8.07;;
75156;SDS011;63736;50.076;8.198;2024-03-25T03:23:19;16.03;;;8.23;;
75156;SDS011;63736;50.076;8.198;2024-03-25T03:24:49;13.77;;;7.63;;
75156;SDS011;63736;50.076;8.198;2024-03-25T03:26:19;11.70;;;6.20;;
75156;SDS011;63736;50.076;8.198;2024-03-25T03:27:49;11.00;;;6.30;;
75156;SDS011;63736;50.076;8.198;2024-03-25T03:29:20;11.63;;;4.27;;
75156;SDS011;63736;50.076;8.198;2024-03-25T03:30:50;8.52;;;2.42;;
75156;SDS011;63736;50.076;8.198;2024-03-25T03:32:20;6.47;;;2.27;;
75156;SDS011;63736;50.076;8.198;2024-03-25T03:33:50;8.67;;;2.30;;
75156;SDS011;63736;50.076;8.198;2024-03-25T03:35:21;7.53;;;2.10;;
75156;SDS011;63736;50.076;8.198;2024-03-25T03:36:51;10.33;;;2.47;;
75156;SDS011;63736;50.076;8.198;2024-03-25T03:38:21;7.80;;;2.00;;
75156;SDS011;63736;50.076;8.198;2024-03-25T03:39:52;5.43;;;2.13;;
75156;SDS011;63736;50.076;8.198;2024-03-25T03:41:22;7.97;;;2.27;;
75156;SDS011;63736;50.076;8.198;2024-03-25T03:42:52;9.43;;;2.20;;
75156;SDS011;63736;50.076;8.198;2024-03-25T03:44:22;8.00;;;1.80;;
75156;SDS011;63736;50.076;8.198;2024-03-25T03:45:53;7.37;;;1.70;;
75156;SDS011;63736;50.076;8.198;2024-03-25T03:47:23;12.20;;;2.17;;
75156;SDS011;63736;50.076;8.198;2024-03-25T03:48:53;7.73;;;1.40;;
75156;SDS011;63736;50.076;8.198;2024-03-25T03:50:23;4.10;;;1.33;;
75156;SDS011;63736;50.076;8.198;2024-03-25T03:51:54;7.37;;;1.80;;
75156;SDS011;63736;50.076;8.198;2024-03-25T03:53:25;4.70;;;1.42;;
75156;SDS011;63736;50.076;8.198;2024-03-25T03:54:55;4.93;;;1.53;;
75156;SDS011;63736;50.076;8.198;2024-03-25T03:56:25;6.03;;;1.50;;
75156;SDS011;63736;50.076;8.198;2024-03-25T03:57:55;7.60;;;1.77;;
75156;SDS011;63736;50.076;8.198;2024-03-25T03:59:26;6.37;;;1.93;;
75156;SDS011;63736;50.076;8.198;2024-03-25T04:00:56;7.67;;;1.80;;
75156;SDS011;63736;50.076;8.198;2024-03-25T04:02:27;7.20;;;2.10;;
75156;SDS011;63736;50.076;8.198;2024-03-25T04:03:58;10.10;;;2.40;;
75156;SDS011;63736;50.076;8.198;2024-03-25T04:05:29;9.03;;;2.37;;
75156;SDS011;63736;50.076;8.198;2024-03-25T04:07:01;6.15;;;1.80;;
75156;SDS011;63736;50.076;8.198;2024-03-25T04:08:32;5.40;;;1.75;;
75156;SDS011;63736;50.076;8.198;2024-03-25T04:10:02;8.13;;;2.30;;
75156;SDS011;63736;50.076;8.198;2024-03-25T04:11:35;6.85;;;1.85;;
75156;SDS011;63736;50.076;8.198;2024-03-25T04:13:06;7.45;;;2.10;;
75156;SDS011;63736;50.076;8.198;2024-03-25T04:14:41;6.07;;;1.75;;
75156;SDS011;63736;50.076;8.198;2024-03-25T04:16:11;6.83;;;1.80;;
75156;SDS011;63736;50.076;8.198;2024-03-25T04:17:41;7.93;;;2.10;;
75156;SDS011;63736;50.076;8.198;2024-03-25T04:19:13;5.75;;;1.75;;
75156;SDS011;63736;50.076;8.198;2024-03-25T04:20:43;9.30;;;1.90;;
75156;SDS011;63736;50.076;8.198;2024-03-25T04:22:14;7.23;;;1.80;;
75156;SDS011;63736;50.076;8.198;2024-03-25T04:23:44;7.93;;;1.80;;
75156;SDS011;63736;50.076;8.198;2024-03-25T04:25:14;4.80;;;1.70;;
75156;SDS011;63736;50.076;8.198;2024-03-25T04:26:45;7.60;;;1.90;;
75156;SDS011;63736;50.076;8.198;2024-03-25T04:28:16;7.03;;;1.83;;
75156;SDS011;63736;50.076;8.198;2024-03-25T04:29:46;6.97;;;1.50;;
75156;SDS011;63736;50.076;8.198;2024-03-25T04:31:16;8.33;;;1.77;;
75156;SDS011;63736;50.076;8.198;2024-03-25T04:32:47;6.77;;;1.83;;
75156;SDS011;63736;50.076;8.198;2024-03-25T04:34:17;6.63;;;1.77;;
75156;SDS011;63736;50.076;8.198;2024-03-25T04:35:47;5.30;;;2.00;;
75156;SDS011;63736;50.076;8.198;2024-03-25T04:37:17;6.95;;;1.90;;
75156;SDS011;63736;50.076;8.198;2024-03-25T04:38:48;7.03;;;1.70;;
75156;SDS011;63736;50.076;8.198;2024-03-25T04:40:18;7.23;;;1.70;;
75156;SDS011;63736;50.076;8.198;2024-03-25T04:41:49;6.57;;;1.75;;
75156;SDS011;63736;50.076;8.198;2024-03-25T04:43:19;7.97;;;1.93;;
75156;SDS011;63736;50.076;8.198;2024-03-25T04:44:50;6.57;;;1.90;;
75156;SDS011;63736;50.076;8.198;2024-03-25T04:46:21;9.35;;;1.92;;
75156;SDS011;63736;50.076;8.198;2024-03-25T04:47:51;10.40;;;1.70;;
75156;SDS011;63736;50.076;8.198;2024-03-25T04:49:21;6.30;;;1.70;;
75156;SDS011;63736;50.076;8.198;2024-03-25T04:50:51;5.23;;;1.67;;
75156;SDS011;63736;50.076;8.198;2024-03-25T04:52:22;6.90;;;2.13;;
75156;SDS011;63736;50.076;8.198;2024-03-25T04:53:55;10.00;;;2.70;;
75156;SDS011;63736;50.076;8.198;2024-03-25T04:55:26;7.67;;;1.97;;
75156;SDS011;63736;50.076;8.198;2024-03-25T04:56:56;6.33;;;1.70;;
75156;SDS011;63736;50.076;8.198;2024-03-25T04:58:26;7.57;;;2.35;;
75156;SDS011;63736;50.076;8.198;2024-03-25T04:59:57;7.20;;;2.10;;
75156;SDS011;63736;50.076;8.198;2024-03-25T05:01:28;6.32;;;2.08;;
75156;SDS011;63736;50.076;8.198;2024-03-25T05:02:58;6.17;;;2.03;;
75156;SDS011;63736;50.076;8.198;2024-03-25T05:04:29;6.33;;;2.20;;
75156;SDS011;63736;50.076;8.198;2024-03-25T05:05:59;7.13;;;1.85;;
75156;SDS011;63736;50.076;8.198;2024-03-25T05:07:29;6.83;;;1.87;;
75156;SDS011;63736;50.076;8.198;2024-03-25T05:09:01;7.38;;;1.90;;
75156;SDS011;63736;50.076;8.198;2024-03-25T05:10:31;7.07;;;2.23;;
75156;SDS011;63736;50.076;8.198;2024-03-25T05:12:02;7.57;;;2.07;;
75156;SDS011;63736;50.076;8.198;2024-03-25T05:13:32;5.45;;;1.48;;
75156;SDS011;63736;50.076;8.198;2024-03-25T05:15:02;7.40;;;1.97;;
75156;SDS011;63736;50.076;8.198;2024-03-25T05:16:33;11.20;;;2.50;;
75156;SDS011;63736;50.076;8.198;2024-03-25T05:18:03;10.47;;;2.13;;
75156;SDS011;63736;50.076;8.198;2024-03-25T05:19:34;8.60;;;2.10;;
75156;SDS011;63736;50.076;8.198;2024-03-25T05:21:04;7.27;;;1.63;;
75156;SDS011;63736;50.076;8.198;2024-03-25T05:22:34;7.63;;;2.27;;
75156;SDS011;63736;50.076;8.198;2024-03-25T05:24:05;6.80;;;1.80;;
75156;SDS011;63736;50.076;8.198;2024-03-25T05:25:35;7.63;;;1.83;;
75156;SDS011;63736;50.076;8.198;2024-03-25T05:27:06;8.73;;;1.70;;
75156;SDS011;63736;50.076;8.198;2024-03-25T05:28:36;8.57;;;1.60;;
75156;SDS011;63736;50.076;8.198;2024-03-25T05:30:06;6.90;;;2.10;;
75156;SDS011;63736;50.076;8.198;2024-03-25T05:31:37;5.65;;;1.70;;
75156;SDS011;63736;50.076;8.198;2024-03-25T05:33:09;5.90;;;1.63;;
75156;SDS011;63736;50.076;8.198;2024-03-25T05:34:39;8.70;;;1.93;;
75156;SDS011;63736;50.076;8.198;2024-03-25T05:36:09;6.13;;;1.60;;
75156;SDS011;63736;50.076;8.198;2024-03-25T05:37:40;6.50;;;1.80;;
75156;SDS011;63736;50.076;8.198;2024-03-25T05:39:10;5.80;;;1.80;;
75156;SDS011;63736;50.076;8.198;2024-03-25T05:40:40;6.67;;;2.40;;
75156;SDS011;63736;50.076;8.198;2024-03-25T05:42:10;4.63;;;1.60;;
75156;SDS011;63736;50.076;8.198;2024-03-25T05:43:41;8.23;;;1.80;;
75156;SDS011;63736;50.076;8.198;2024-03-25T05:45:11;7.47;;;1.93;;
75156;SDS011;63736;50.076;8.198;2024-03-25T05:46:42;6.80;;;2.33;;
75156;SDS011;63736;50.076;8.198;2024-03-25T05:48:12;7.50;;;2.15;;
75156;SDS011;63736;50.076;8.198;2024-03-25T05:49:42;5.90;;;2.33;;
75156;SDS011;63736;50.076;8.198;2024-03-25T05:51:12;8.97;;;1.70;;
75156;SDS011;63736;50.076;8.198;2024-03-25T05:52:44;9.10;;;2.35;;
75156;SDS011;63736;50.076;8.198;2024-03-25T05:54:15;10.40;;;2.50;;
75156;SDS011;63736;50.076;8.198;2024-03-25T05:55:45;8.57;;;2.17;;
75156;SDS011;63736;50.076;8.198;2024-03-25T05:57:15;8.43;;;2.10;;
75156;SDS011;63736;50.076;8.198;2024-03-25T05:58:45;7.23;;;2.00;;
75156;SDS011;63736;50.076;8.198;2024-03-25T06:00:16;5.50;;;2.10;;
75156;SDS011;63736;50.076;8.198;2024-03-25T06:01:46;8.90;;;3.00;;
75156;SDS011;63736;50.076;8.198;2024-03-25T06:03:17;7.43;;;2.53;;
75156;SDS011;63736;50.076;8.198;2024-03-25T06:04:48;10.65;;;2.30;;
75156;SDS011;63736;50.076;8.198;2024-03-25T06:06:18;5.60;;;1.67;;
75156;SDS011;63736;50.076;8.198;2024-03-25T06:07:49;5.07;;;1.60;;
75156;SDS011;63736;50.076;8.198;2024-03-25T06:09:19;7.53;;;1.70;;
75156;SDS011;63736;50.076;8.198;2024-03-25T06:10:49;6.43;;;1.40;;
75156;SDS011;63736;50.076;8.198;2024-03-25T06:12:20;6.53;;;1.40;;
75156;SDS011;63736;50.076;8.198;2024-03-25T06:13:50;6.35;;;1.73;;
75156;SDS011;63736;50.076;8.198;2024-03-25T06:15:20;5.93;;;1.60;;
75156;SDS011;63736;50.076;8.198;2024-03-25T06:16:51;6.43;;;1.50;;
75156;SDS011;63736;50.076;8.198;2024-03-25T06:18:21;7.17;;;1.50;;
75156;SDS011;63736;50.076;8.198;2024-03-25T06:19:51;5.07;;;1.53;;
75156;SDS011;63736;50.076;8.198;2024-03-25T06:21:22;6.60;;;1.80;;
75156;SDS011;63736;50.076;8.198;2024-03-25T06:22:53;6.30;;;2.00;;
75156;SDS011;63736;50.076;8.198;2024-03-25T06:24:23;11.87;;;2.13;;
75156;SDS011;63736;50.076;8.198;2024-03-25T06:25:54;9.87;;;2.70;;
75156;SDS011;63736;50.076;8.198;2024-03-25T06:27:25;6.88;;;2.20;;
75156;SDS011;63736;50.076;8.198;2024-03-25T06:28:55;6.50;;;1.97;;
75156;SDS011;63736;50.076;8.198;2024-03-25T06:30:25;7.97;;;2.30;;
75156;SDS011;63736;50.076;8.198;2024-03-25T06:32:14;6.97;;;2.10;;
75156;SDS011;63736;50.076;8.198;2024-03-25T06:34:03;5.95;;;2.00;;
75156;SDS011;63736;50.076;8.198;2024-03-25T06:35:51;9.02;;;1.60;;
75156;SDS011;63736;50.076;8.198;2024-03-25T06:37:22;6.17;;;1.90;;
75156;SDS011;63736;50.076;8.198;2024-03-25T06:38:52;7.43;;;1.70;;
75156;SDS011;63736;50.076;8.198;2024-03-25T06:40:22;5.55;;;1.70;;
75156;SDS011;63736;50.076;8.198;2024-03-25T06:41:52;6.77;;;2.03;;
75156;SDS011;63736;50.076;8.198;2024-03-25T06:43:23;6.63;;;2.10;;
75156;SDS011;63736;50.076;8.198;2024-03-25T06:44:53;7.43;;;2.53;;
75156;SDS011;63736;50.076;8.198;2024-03-25T06:46:23;6.27;;;2.13;;
75156;SDS011;63736;50.076;8.198;2024-03-25T06:47:53;6.40;;;1.80;;
75156;SDS011;63736;50.076;8.198;2024-03-25T06:49:24;8.07;;;1.80;;
75156;SDS011;63736;50.076;8.198;2024-03-25T06:50:54;7.97;;;2.30;;
75156;SDS011;63736;50.076;8.198;2024-03-25T06:52:28;5.75;;;2.30;;
75156;SDS011;63736;50.076;8.198;2024-03-25T06:53:59;7.47;;;2.60;;
75156;SDS011;63736;50.076;8.198;2024-03-25T06:55:29;7.22;;;2.58;;
75156;SDS011;63736;50.076;8.198;2024-03-25T06:56:59;7.03;;;2.17;;
75156;SDS011;63736;50.076;8.198;2024-03-25T06:58:30;5.67;;;2.13;;
75156;SDS011;63736;50.076;8.198;2024-03-25T07:00:00;6.80;;;1.95;;
75156;SDS011;63736;50.076;8.198;2024-03-25T07:01:31;5.03;;;1.73;;
75156;SDS011;63736;50.076;8.198;2024-03-25T07:03:01;7.73;;;2.10;;
75156;SDS011;63736;50.076;8.198;2024-03-25T07:04:31;6.43;;;2.20;;
75156;SDS011;63736;50.076;8.198;2024-03-25T07:06:02;7.10;;;2.47;;
75156;SDS011;63736;50.076;8.198;2024-03-25T07:07:33;6.15;;;2.35;;
75156;SDS011;63736;50.076;8.198;2024-03-25T07:09:06;6.37;;;2.57;;
75156;SDS011;63736;50.076;8.198;2024-03-25T07:10:36;9.27;;;2.90;;
75156;SDS011;63736;50.076;8.198;2024-03-25T07:12:07;11.40;;;4.60;;
75156;SDS011;63736;50.076;8.198;2024-03-25T07:13:37;18.70;;;9.87;;
75156;SDS011;63736;50.076;8.198;2024-03-25T07:15:08;8.65;;;4.15;;
75156;SDS011;63736;50.076;8.198;2024-03-25T07:16:38;7.83;;;2.33;;
75156;SDS011;63736;50.076;8.198;2024-03-25T07:18:09;7.37;;;2.13;;
75156;SDS011;63736;50.076;8.198;2024-03-25T07:19:40;6.03;;;1.80;;
75156;SDS011;63736;50.076;8.198;2024-03-25T07:21:11;7.77;;;2.00;;
75156;SDS011;63736;50.076;8.198;2024-03-25T07:22:41;7.57;;;2.07;;
75156;SDS011;63736;50.076;8.198;2024-03-25T07:24:11;7.40;;;1.90;;
75156;SDS011;63736;50.076;8.198;2024-03-25T07:25:42;7.30;;;1.90;;
75156;SDS011;63736;50.076;8.198;2024-03-25T07:27:12;5.97;;;1.93;;
75156;SDS011;63736;50.076;8.198;2024-03-25T07:28:42;8.03;;;1.80;;
75156;SDS011;63736;50.076;8.198;2024-03-25T07:30:13;6.07;;;2.00;;
75156;SDS011;63736;50.076;8.198;2024-03-25T07:31:43;8.23;;;2.40;;
75156;SDS011;63736;50.076;8.198;2024-03-25T07:33:13;6.70;;;1.83;;
75156;SDS011;63736;50.076;8.198;2024-03-25T07:34:43;7.30;;;2.20;;
75156;SDS011;63736;50.076;8.198;2024-03-25T07:36:14;5.80;;;2.03;;
75156;SDS011;63736;50.076;8.198;2024-03-25T07:37:44;7.70;;;2.10;;
75156;SDS011;63736;50.076;8.198;2024-03-25T07:39:14;5.53;;;2.07;;
75156;SDS011;63736;50.076;8.198;2024-03-25T07:40:45;10.23;;;3.10;;
75156;SDS011;63736;50.076;8.198;2024-03-25T07:42:16;9.45;;;5.05;;
75156;SDS011;63736;50.076;8.198;2024-03-25T07:43:46;7.63;;;3.13;;
75156;SDS011;63736;50.076;8.198;2024-03-25T07:45:16;6.05;;;2.35;;
75156;SDS011;63736;50.076;8.198;2024-03-25T07:46:47;8.17;;;2.03;;
75156;SDS011;63736;50.076;8.198;2024-03-25T07:48:17;6.60;;;2.00;;
75156;SDS011;63736;50.076;8.198;2024-03-25T07:49:47;5.83;;;1.70;;
75156;SDS011;63736;50.076;8.198;2024-03-25T07:51:18;6.27;;;1.97;;
75156;SDS011;63736;50.076;8.198;2024-03-25T07:52:48;14.20;;;6.13;;
75156;SDS011;63736;50.076;8.198;2024-03-25T07:54:18;10.03;;;4.87;;
75156;SDS011;63736;50.076;8.198;2024-03-25T07:55:49;10.70;;;5.93;;
75156;SDS011;63736;50.076;8.198;2024-03-25T07:57:21;6.53;;;3.30;;
75156;SDS011;63736;50.076;8.198;2024-03-25T07:58:51;25.65;;;17.50;;
75156;SDS011;63736;50.076;8.198;2024-03-25T08:00:21;9.47;;;4.63;;
75156;SDS011;63736;50.076;8.198;2024-03-25T08:01:52;10.70;;;3.00;;
75156;SDS011;63736;50.076;8.198;2024-03-25T08:03:22;7.50;;;2.57;;
75156;SDS011;63736;50.076;8.198;2024-03-25T08:04:55;6.65;;;2.25;;
75156;SDS011;63736;50.076;8.198;2024-03-25T08:06:25;6.73;;;1.80;;
75156;SDS011;63736;50.076;8.198;2024-03-25T08:07:55;8.00;;;2.57;;
75156;SDS011;63736;50.076;8.198;2024-03-25T08:09:28;5.67;;;2.27;;
75156;SDS011;63736;50.076;8.198;2024-03-25T08:10:59;7.28;;;2.10;;
75156;SDS011;63736;50.076;8.198;2024-03-25T08:12:29;6.30;;;1.57;;
75156;SDS011;63736;50.076;8.198;2024-03-25T08:13:59;10.73;;;2.37;;
75156;SDS011;63736;50.076;8.198;2024-03-25T08:15:30;8.25;;;1.80;;
75156;SDS011;63736;50.076;8.198;2024-03-25T08:17:00;7.20;;;2.07;;
75156;SDS011;63736;50.076;8.198;2024-03-25T08:18:30;7.63;;;1.77;;
75156;SDS011;63736;50.076;8.198;2024-03-25T08:20:00;9.03;;;2.20;;
75156;SDS011;63736;50.076;8.198;2024-03-25T08:21:31;7.57;;;2.10;;
75156;SDS011;63736;50.076;8.198;2024-03-25T08:23:01;5.63;;;1.90;;
75156;SDS011;63736;50.076;8.198;2024-03-25T08:24:31;7.53;;;2.13;;
75156;SDS011;63736;50.076;8.198;2024-03-25T08:26:02;8.13;;;2.27;;
75156;SDS011;63736;50.076;8.198;2024-03-25T08:27:32;10.70;;;2.73;;
75156;SDS011;63736;50.076;8.198;2024-03-25T08:29:02;7.27;;;2.00;;
75156;SDS011;63736;50.076;8.198;2024-03-25T08:30:33;8.07;;;1.95;;
75156;SDS011;63736;50.076;8.198;2024-03-25T08:32:06;7.13;;;2.00;;
75156;SDS011;63736;50.076;8.198;2024-03-25T08:33:36;7.27;;;1.70;;
75156;SDS011;63736;50.076;8.198;2024-03-25T08:35:06;7.60;;;2.10;;
75156;SDS011;63736;50.076;8.198;2024-03-25T08:36:37;8.73;;;2.23;;
75156;SDS011;63736;50.076;8.198;2024-03-25T08:38:07;8.53;;;2.20;;
75156;SDS011;63736;50.076;8.198;2024-03-25T08:39:38;7.57;;;2.10;;
75156;SDS011;63736;50.076;8.198;2024-03-25T08:41:08;7.30;;;1.70;;
75156;SDS011;63736;50.076;8.198;2024-03-25T08:42:38;6.68;;;2.00;;
75156;SDS011;63736;50.076;8.198;2024-03-25T08:44:09;9.13;;;2.43;;
75156;SDS011;63736;50.076;8.198;2024-03-25T08:45:39;10.70;;;2.23;;
75156;SDS011;63736;50.076;8.198;2024-03-25T08:47:10;8.70;;;2.38;;
75156;SDS011;63736;50.076;8.198;2024-03-25T08:48:40;6.53;;;1.80;;
75156;SDS011;63736;50.076;8.198;2024-03-25T08:50:11;9.38;;;2.05;;
75156;SDS011;63736;50.076;8.198;2024-03-25T08:51:41;6.23;;;1.90;;
75156;SDS011;63736;50.076;8.198;2024-03-25T08:53:11;9.93;;;2.00;;
75156;SDS011;63736;50.076;8.198;2024-03-25T08:54:42;8.30;;;2.07;;
75156;SDS011;63736;50.076;8.198;2024-03-25T08:56:12;7.37;;;1.90;;
75156;SDS011;63736;50.076;8.198;2024-03-25T08:57:42;8.82;;;2.15;;
75156;SDS011;63736;50.076;8.198;2024-03-25T08:59:13;6.67;;;1.70;;
75156;SDS011;63736;50.076;8.198;2024-03-25T09:00:43;8.13;;;1.73;;
75156;SDS011;63736;50.076;8.198;2024-03-25T09:02:13;9.13;;;2.13;;
75156;SDS011;63736;50.076;8.198;2024-03-25T09:03:43;6.20;;;1.63;;